Villa Montes, Bolivia
Current Conditions -  °F | °C
As of 2:00 PM on Monday 20 Oct 2014 (Local Time) from SLTJ Reporting Station
Overcast Overcast  
Wind Chill: 64°   Ceiling: 2500
Heat Index: 64°   Visibility: 6mi
Dew Point: 59°   Wind: 7mph
Humidity: 83%   Direction: 130°SE
Pressure: 30.21"   Gusts: NA
Location:  21.27°S, 63.5°W
Report Text: SLTJ 201800Z 13006KT 9999 BKN025 OVC070 18/15 Q1023
Loading
Personal Weather Stations






























Interactive Weather Map
Tropical Storm Tracking
New forecast layout! Learn more

10-Day Weather Forecast

Advertisements
Track Severe Weather on mobile